Time;durP1;ratioP1;P1;durP2;ratioP2;P2;SDS_P1;SDS_P2;PMS_P1;PMS_P2;Temp;Humidity;BMP_temperature;BMP_pressure;BME280_temperature;BME280_humidity;BME280_pressure;Samples;Min_cycle;Max_cycle;Signal;HPM_P1;HPM_P2
2022/03/15 00:01:07;;;;;;;10.88;4.72;;;;;;;;;;4987374;28;20034;-80
2022/03/15 00:03:32;;;;;;;14.55;5.20;;;;;;;;;;5014605;28;20101;-83
2022/03/15 00:05:59;;;;;;;10.02;4.88;;;;;;;;;;4986133;28;20474;-78
2022/03/15 00:08:26;;;;;;;11.68;4.70;;;;;;;;;;4984927;28;20418;-79
2022/03/15 00:10:54;;;;;;;11.90;5.07;;;;;;;;;;4989496;28;20026;-84
2022/03/15 00:13:20;;;;;;;10.65;5.20;;;;;;;;;;4987246;28;20390;-77
2022/03/15 00:15:48;;;;;;;9.30;4.72;;;;;;;;;;5014377;28;20121;-76
2022/03/15 00:18:13;;;;;;;10.40;5.30;;;;;;;;;;4983549;28;20034;-78
2022/03/15 00:20:39;;;;;;;8.10;4.50;;;;;;;;;;5012905;28;20040;-77
2022/03/15 00:23:04;;;;;;;8.50;4.70;;;;;;;;;;4982841;28;20050;-78
2022/03/15 00:25:31;;;;;;;10.68;5.10;;;;;;;;;;4983897;28;20030;-80
2022/03/15 00:27:57;;;;;;;10.80;5.13;;;;;;;;;;4984996;28;20026;-84
2022/03/15 00:30:23;;;;;;;9.73;4.90;;;;;;;;;;4980705;28;20041;-77
2022/03/15 00:32:49;;;;;;;8.93;4.85;;;;;;;;;;4984112;28;20593;-84
2022/03/15 00:35:19;;;;;;;10.07;6.10;;;;;;;;;;4984376;28;20106;-78
2022/03/15 00:37:50;;;;;;;11.27;5.28;;;;;;;;;;5018260;28;20026;-78
2022/03/15 00:40:17;;;;;;;10.23;5.20;;;;;;;;;;4980991;28;20038;-78
2022/03/15 00:42:53;;;;;;;11.75;5.65;;;;;;;;;;4987514;28;20060;-76
2022/03/15 00:45:22;;;;;;;11.00;5.22;;;;;;;;;;4982794;28;20030;-84
2022/03/15 00:47:48;;;;;;;10.15;5.50;;;;;;;;;;4983867;28;20034;-77
2022/03/15 00:50:13;;;;;;;12.13;5.30;;;;;;;;;;4983693;28;20385;-84
2022/03/15 00:52:39;;;;;;;12.80;5.80;;;;;;;;;;5013434;28;20041;-84
2022/03/15 00:55:05;;;;;;;10.27;5.10;;;;;;;;;;4983688;28;20032;-80
2022/03/15 00:57:31;;;;;;;9.32;5.50;;;;;;;;;;4981162;28;20117;-85
2022/03/15 00:59:57;;;;;;;13.52;5.65;;;;;;;;;;4986181;28;20060;-78
2022/03/15 01:02:23;;;;;;;9.85;5.57;;;;;;;;;;4983728;28;20039;-85
2022/03/15 01:04:48;;;;;;;8.93;5.43;;;;;;;;;;4985487;28;20044;-84
2022/03/15 01:07:13;;;;;;;10.13;5.68;;;;;;;;;;4985191;28;20034;-78
2022/03/15 01:09:39;;;;;;;11.75;5.70;;;;;;;;;;5016572;28;20661;-77
2022/03/15 01:12:05;;;;;;;11.77;6.05;;;;;;;;;;4983787;28;20570;-85
2022/03/15 01:14:31;;;;;;;12.07;6.07;;;;;;;;;;4979277;28;20109;-80
2022/03/15 01:16:56;;;;;;;12.98;6.18;;;;;;;;;;4983225;28;20113;-80
2022/03/15 01:19:23;;;;;;;9.18;5.40;;;;;;;;;;4983991;28;20532;-80
2022/03/15 01:21:50;;;;;;;10.75;5.82;;;;;;;;;;4986435;28;20037;-80
2022/03/15 01:24:15;;;;;;;12.50;5.95;;;;;;;;;;4981103;28;20031;-80
2022/03/15 01:26:42;;;;;;;10.88;6.38;;;;;;;;;;4982315;28;20376;-84
2022/03/15 01:29:07;;;;;;;13.35;6.90;;;;;;;;;;4980332;28;20042;-77
2022/03/15 01:31:33;;;;;;;18.20;7.25;;;;;;;;;;4983293;28;20093;-80
2022/03/15 01:33:59;;;;;;;14.95;8.43;;;;;;;;;;4986538;28;20533;-85
2022/03/15 01:36:24;;;;;;;16.63;9.38;;;;;;;;;;5013287;28;20031;-80
2022/03/15 01:38:52;;;;;;;21.25;11.25;;;;;;;;;;4985435;28;20036;-80
2022/03/15 01:41:18;;;;;;;22.50;12.98;;;;;;;;;;4981860;28;20035;-80
2022/03/15 01:43:46;;;;;;;22.52;12.55;;;;;;;;;;4981250;28;20528;-77
2022/03/15 01:46:11;;;;;;;24.10;13.40;;;;;;;;;;4979779;28;20434;-80
2022/03/15 01:48:36;;;;;;;22.05;12.93;;;;;;;;;;4986754;28;20081;-78
2022/03/15 01:51:02;;;;;;;20.05;12.32;;;;;;;;;;5015305;28;20038;-77
2022/03/15 01:53:29;;;;;;;22.33;13.25;;;;;;;;;;4985981;28;20149;-78
2022/03/15 01:55:54;;;;;;;20.92;12.80;;;;;;;;;;4979410;28;20058;-76
2022/03/15 01:58:19;;;;;;;19.00;12.52;;;;;;;;;;4982091;28;20448;-84
2022/03/15 02:00:45;;;;;;;23.10;12.68;;;;;;;;;;4980775;28;20110;-76
2022/03/15 02:03:11;;;;;;;20.83;12.82;;;;;;;;;;4984316;28;20033;-77
2022/03/15 02:05:36;;;;;;;20.55;12.07;;;;;;;;;;4980368;28;20037;-77
2022/03/15 02:08:15;;;;;;;22.15;12.68;;;;;;;;;;4986430;28;20467;-77
2022/03/15 02:10:41;;;;;;;19.48;12.13;;;;;;;;;;5013033;28;20046;-78
2022/03/15 02:13:08;;;;;;;23.45;12.40;;;;;;;;;;4984179;28;20026;-79
2022/03/15 02:15:33;;;;;;;18.98;12.00;;;;;;;;;;4981516;28;20034;-76
2022/03/15 02:17:59;;;;;;;21.25;12.38;;;;;;;;;;4988588;28;20069;-78
2022/03/15 02:20:25;;;;;;;18.60;12.27;;;;;;;;;;4984405;28;20364;-77
2022/03/15 02:22:50;;;;;;;19.55;11.77;;;;;;;;;;4987382;28;20035;-84
2022/03/15 02:25:16;;;;;;;21.17;12.55;;;;;;;;;;4989563;28;20049;-77
2022/03/15 02:27:41;;;;;;;18.52;12.00;;;;;;;;;;4986134;28;20461;-77
2022/03/15 02:30:08;;;;;;;19.05;11.93;;;;;;;;;;4981393;28;20034;-78
2022/03/15 02:32:34;;;;;;;19.77;12.05;;;;;;;;;;4982745;28;20042;-79
2022/03/15 02:35:00;;;;;;;19.77;12.05;;;;;;;;;;4983835;28;20038;-76
2022/03/15 02:37:25;;;;;;;17.73;11.50;;;;;;;;;;4982736;28;20036;-84
2022/03/15 02:39:51;;;;;;;25.67;12.85;;;;;;;;;;5002784;28;20058;-78
2022/03/15 02:42:17;;;;;;;17.52;11.60;;;;;;;;;;4987417;28;20128;-80
2022/03/15 02:44:42;;;;;;;19.95;11.15;;;;;;;;;;4981241;28;20093;-84
2022/03/15 02:47:08;;;;;;;20.58;11.50;;;;;;;;;;4987003;28;20030;-84
2022/03/15 02:49:33;;;;;;;18.60;11.23;;;;;;;;;;4986037;28;20452;-83
2022/03/15 02:51:59;;;;;;;20.00;11.73;;;;;;;;;;4982981;28;20038;-77
2022/03/15 02:54:24;;;;;;;19.10;11.02;;;;;;;;;;4989883;28;20018;-77
2022/03/15 02:56:50;;;;;;;22.00;11.70;;;;;;;;;;4981912;28;20030;-79
2022/03/15 02:59:16;;;;;;;17.70;10.98;;;;;;;;;;5015601;28;20034;-78
2022/03/15 03:01:43;;;;;;;17.42;11.75;;;;;;;;;;4986255;28;20034;-79
2022/03/15 03:04:08;;;;;;;15.23;10.65;;;;;;;;;;4987598;28;20375;-80
2022/03/15 03:06:35;;;;;;;19.50;11.65;;;;;;;;;;4987430;28;20084;-77
2022/03/15 03:09:00;;;;;;;15.60;10.07;;;;;;;;;;4986391;28;20129;-76
2022/03/15 03:11:25;;;;;;;16.63;11.23;;;;;;;;;;4984353;28;20114;-77
2022/03/15 03:13:55;;;;;;;17.02;11.30;;;;;;;;;;5013113;28;20081;-80
2022/03/15 03:16:21;;;;;;;18.23;10.90;;;;;;;;;;4983842;28;20022;-80
2022/03/15 03:18:46;;;;;;;19.80;11.48;;;;;;;;;;4987696;28;20105;-80
2022/03/15 03:21:12;;;;;;;17.85;11.48;;;;;;;;;;4986379;28;20443;-79
2022/03/15 03:23:39;;;;;;;18.48;11.50;;;;;;;;;;4983427;28;20037;-78
2022/03/15 03:26:05;;;;;;;17.80;11.13;;;;;;;;;;4987355;28;20026;-77
2022/03/15 03:28:37;;;;;;;18.77;11.48;;;;;;;;;;5015772;28;20447;-78
2022/03/15 03:31:03;;;;;;;15.93;10.68;;;;;;;;;;4982981;28;20089;-79
2022/03/15 03:33:30;;;;;;;18.08;11.30;;;;;;;;;;5015192;28;20162;-77
2022/03/15 03:35:56;;;;;;;16.77;11.18;;;;;;;;;;4988107;28;20390;-84
2022/03/15 03:38:21;;;;;;;15.27;10.32;;;;;;;;;;4986548;28;20022;-77
2022/03/15 03:40:46;;;;;;;17.92;11.02;;;;;;;;;;4989157;28;20034;-76
2022/03/15 03:43:12;;;;;;;18.73;10.63;;;;;;;;;;5014659;28;20049;-77
2022/03/15 03:45:38;;;;;;;16.48;11.32;;;;;;;;;;4983535;28;20061;-84
2022/03/15 03:48:05;;;;;;;17.20;10.90;;;;;;;;;;4982834;28;20446;-85
2022/03/15 03:50:31;;;;;;;18.42;11.07;;;;;;;;;;5022351;28;20429;-80
2022/03/15 03:52:56;;;;;;;17.65;11.18;;;;;;;;;;4988577;28;20023;-83
2022/03/15 03:55:22;;;;;;;15.65;10.25;;;;;;;;;;4990643;28;20057;-78
2022/03/15 03:57:47;;;;;;;15.02;10.70;;;;;;;;;;4991113;28;20113;-77
2022/03/15 04:00:13;;;;;;;16.33;10.40;;;;;;;;;;4987490;28;20038;-79
2022/03/15 04:02:39;;;;;;;16.17;10.40;;;;;;;;;;4986223;28;20033;-84
2022/03/15 04:05:05;;;;;;;15.60;10.73;;;;;;;;;;4984972;28;21881;-84
2022/03/15 04:07:30;;;;;;;18.23;10.85;;;;;;;;;;4991311;28;20044;-80
2022/03/15 04:09:56;;;;;;;15.77;10.20;;;;;;;;;;4988349;28;20033;-84
2022/03/15 04:12:23;;;;;;;14.70;9.73;;;;;;;;;;4988831;28;20038;-79
2022/03/15 04:14:48;;;;;;;15.48;10.50;;;;;;;;;;4984313;28;20100;-79
2022/03/15 04:17:15;;;;;;;19.52;10.75;;;;;;;;;;4982226;28;20054;-76
2022/03/15 04:19:40;;;;;;;18.58;10.27;;;;;;;;;;4985988;28;21884;-79
2022/03/15 04:22:06;;;;;;;16.73;10.23;;;;;;;;;;4988669;28;20034;-84
2022/03/15 04:24:32;;;;;;;16.20;11.27;;;;;;;;;;4987873;28;20023;-80
2022/03/15 04:26:58;;;;;;;16.15;9.98;;;;;;;;;;4984520;28;20030;-77
2022/03/15 04:29:24;;;;;;;15.80;11.20;;;;;;;;;;4986213;28;20066;-79
2022/03/15 04:31:49;;;;;;;20.05;10.60;;;;;;;;;;4981494;28;20038;-78
2022/03/15 04:34:14;;;;;;;17.10;10.93;;;;;;;;;;4984964;28;20111;-79
2022/03/15 04:36:41;;;;;;;17.50;11.10;;;;;;;;;;4981392;28;20050;-83
2022/03/15 04:39:06;;;;;;;15.88;10.95;;;;;;;;;;4986258;28;20053;-80
2022/03/15 04:41:32;;;;;;;17.73;10.43;;;;;;;;;;4985936;28;20463;-78
2022/03/15 04:43:57;;;;;;;19.10;10.93;;;;;;;;;;4985521;28;20449;-78
2022/03/15 04:46:23;;;;;;;15.93;10.35;;;;;;;;;;4979874;28;20023;-84
2022/03/15 04:48:48;;;;;;;16.48;11.02;;;;;;;;;;4982990;28;20088;-77
2022/03/15 04:51:14;;;;;;;19.67;10.15;;;;;;;;;;4985782;28;20028;-84
2022/03/15 04:53:39;;;;;;;15.75;10.18;;;;;;;;;;4984130;28;20026;-79
2022/03/15 04:56:05;;;;;;;20.65;10.73;;;;;;;;;;4988822;28;20065;-77
2022/03/15 04:58:30;;;;;;;16.58;10.73;;;;;;;;;;4981777;28;20049;-80
2022/03/15 05:00:55;;;;;;;19.23;10.82;;;;;;;;;;4982147;28;20191;-78
2022/03/15 05:03:21;;;;;;;15.75;10.25;;;;;;;;;;5013920;28;20038;-80
2022/03/15 05:05:46;;;;;;;16.42;9.73;;;;;;;;;;5017889;28;20434;-80
2022/03/15 05:08:12;;;;;;;15.65;10.07;;;;;;;;;;4987523;28;20046;-78
2022/03/15 05:13:21;;;;;;;17.58;10.38;;;;;;;;;;4985700;28;20044;-77
2022/03/15 05:15:47;;;;;;;14.98;10.10;;;;;;;;;;5014097;28;20034;-84
2022/03/15 05:18:13;;;;;;;16.25;9.55;;;;;;;;;;5014487;28;20030;-80
2022/03/15 05:20:38;;;;;;;22.00;10.45;;;;;;;;;;4983616;28;20077;-83
2022/03/15 05:23:04;;;;;;;19.50;10.15;;;;;;;;;;4986156;28;20506;-80
2022/03/15 05:25:29;;;;;;;16.55;10.10;;;;;;;;;;4984953;28;20398;-76
2022/03/15 05:27:54;;;;;;;18.40;10.63;;;;;;;;;;4985959;28;20027;-77
2022/03/15 05:30:20;;;;;;;16.00;10.40;;;;;;;;;;4985915;28;20405;-76
2022/03/15 05:32:45;;;;;;;17.45;10.10;;;;;;;;;;4981570;28;20026;-78
2022/03/15 05:35:11;;;;;;;17.55;10.15;;;;;;;;;;4984351;28;20036;-78
2022/03/15 05:37:36;;;;;;;21.27;10.40;;;;;;;;;;5009981;28;20061;-84
2022/03/15 05:40:02;;;;;;;14.45;10.23;;;;;;;;;;4984332;28;20082;-79
2022/03/15 05:42:28;;;;;;;16.70;10.50;;;;;;;;;;4984114;28;20054;-80
2022/03/15 05:44:53;;;;;;;17.15;11.15;;;;;;;;;;4984302;28;20549;-78
2022/03/15 05:47:18;;;;;;;15.43;10.70;;;;;;;;;;4985293;28;20030;-79
2022/03/15 05:49:44;;;;;;;21.15;11.40;;;;;;;;;;4986046;28;20040;-76
2022/03/15 05:52:09;;;;;;;17.92;11.15;;;;;;;;;;4990339;28;20026;-77
2022/03/15 05:54:35;;;;;;;18.60;10.82;;;;;;;;;;4990946;28;20026;-77
2022/03/15 05:57:01;;;;;;;19.02;11.02;;;;;;;;;;4991418;28;20028;-77
2022/03/15 05:59:26;;;;;;;17.08;10.93;;;;;;;;;;4989483;28;20034;-78
2022/03/15 06:01:52;;;;;;;15.90;10.35;;;;;;;;;;5021167;28;20130;-78
2022/03/15 06:04:17;;;;;;;16.58;10.65;;;;;;;;;;4989341;28;20039;-83
2022/03/15 06:06:43;;;;;;;17.48;10.88;;;;;;;;;;5017083;28;20523;-84
2022/03/15 06:09:08;;;;;;;15.95;10.75;;;;;;;;;;4989744;28;20126;-81
2022/03/15 06:11:39;;;;;;;16.52;10.32;;;;;;;;;;4986833;28;20026;-81
2022/03/15 06:14:05;;;;;;;17.67;10.77;;;;;;;;;;4986049;28;20513;-77
2022/03/15 06:16:30;;;;;;;15.25;10.32;;;;;;;;;;5019797;28;20026;-78
2022/03/15 06:18:56;;;;;;;16.95;10.43;;;;;;;;;;4981181;28;20268;-78
2022/03/15 06:21:21;;;;;;;16.52;10.25;;;;;;;;;;4983096;28;20029;-84
2022/03/15 06:23:46;;;;;;;15.27;9.70;;;;;;;;;;4982183;28;20035;-77
2022/03/15 06:26:11;;;;;;;16.85;10.15;;;;;;;;;;4985267;28;20125;-84
2022/03/15 06:28:37;;;;;;;16.73;10.93;;;;;;;;;;5015809;28;20066;-76
2022/03/15 06:31:03;;;;;;;16.42;9.77;;;;;;;;;;5018174;28;20030;-84
2022/03/15 06:33:29;;;;;;;14.60;10.15;;;;;;;;;;4987316;28;20054;-78
2022/03/15 06:35:54;;;;;;;16.92;10.93;;;;;;;;;;5020254;28;20061;-78
2022/03/15 06:38:20;;;;;;;17.90;10.57;;;;;;;;;;4989944;28;20467;-78
2022/03/15 06:40:49;;;;;;;18.58;10.70;;;;;;;;;;4988186;28;20117;-84
2022/03/15 06:43:14;;;;;;;15.60;10.07;;;;;;;;;;4989360;28;20045;-84
2022/03/15 06:45:46;;;;;;;21.17;10.60;;;;;;;;;;4987212;28;20421;-76
2022/03/15 06:48:12;;;;;;;16.52;10.23;;;;;;;;;;4989360;28;20031;-79
2022/03/15 06:50:39;;;;;;;19.75;10.40;;;;;;;;;;4990488;28;20395;-78
2022/03/15 06:53:05;;;;;;;13.93;9.73;;;;;;;;;;4989608;28;20091;-83
2022/03/15 06:55:30;;;;;;;14.20;9.55;;;;;;;;;;4991615;28;20041;-80
2022/03/15 06:57:55;;;;;;;13.48;9.73;;;;;;;;;;4989217;28;20049;-84
2022/03/15 07:00:21;;;;;;;15.70;10.05;;;;;;;;;;4987185;28;20034;-84
2022/03/15 07:02:47;;;;;;;16.90;10.13;;;;;;;;;;4984749;28;20034;-80
2022/03/15 07:05:12;;;;;;;16.70;9.73;;;;;;;;;;4983326;28;20117;-77
2022/03/15 07:07:38;;;;;;;14.65;8.77;;;;;;;;;;5018053;28;20053;-79
2022/03/15 07:10:09;;;;;;;17.77;9.43;;;;;;;;;;5019245;28;20037;-77
2022/03/15 07:12:36;;;;;;;16.52;8.88;;;;;;;;;;4993385;28;20023;-77
2022/03/15 07:15:03;;;;;;;14.60;8.85;;;;;;;;;;4987408;28;20022;-77
2022/03/15 07:17:32;;;;;;;12.52;9.05;;;;;;;;;;4986733;28;20126;-77
2022/03/15 07:19:58;;;;;;;13.85;8.73;;;;;;;;;;4983136;28;20088;-76
2022/03/15 07:22:25;;;;;;;19.02;9.38;;;;;;;;;;4989046;28;20505;-79
2022/03/15 07:24:51;;;;;;;15.05;8.13;;;;;;;;;;4983677;28;20068;-77
2022/03/15 07:27:17;;;;;;;14.10;8.70;;;;;;;;;;4989075;28;20080;-76
2022/03/15 07:29:42;;;;;;;13.90;8.60;;;;;;;;;;4990108;28;20548;-78
2022/03/15 07:32:08;;;;;;;13.10;8.50;;;;;;;;;;4989936;28;20057;-84
2022/03/15 07:34:33;;;;;;;13.93;9.02;;;;;;;;;;4985469;28;20026;-84
2022/03/15 07:36:58;;;;;;;12.27;8.18;;;;;;;;;;4990736;28;20030;-83
2022/03/15 07:39:23;;;;;;;13.27;9.00;;;;;;;;;;4995041;28;20045;-82
2022/03/15 07:41:50;;;;;;;17.13;8.65;;;;;;;;;;5021085;28;20022;-77
2022/03/15 07:44:15;;;;;;;15.07;8.60;;;;;;;;;;4992192;28;20549;-80
2022/03/15 07:46:48;;;;;;;14.55;7.90;;;;;;;;;;4994533;28;20022;-84
2022/03/15 07:49:17;;;;;;;15.50;8.60;;;;;;;;;;4992389;28;20014;-77
2022/03/15 07:51:42;;;;;;;17.70;9.10;;;;;;;;;;4977098;28;20030;-78
2022/03/15 07:54:07;;;;;;;10.82;7.95;;;;;;;;;;4988408;28;20032;-83
2022/03/15 07:56:32;;;;;;;16.08;8.70;;;;;;;;;;5019566;28;20037;-84
2022/03/15 07:58:58;;;;;;;14.80;8.02;;;;;;;;;;4985779;28;20533;-79
2022/03/15 08:01:23;;;;;;;15.38;8.32;;;;;;;;;;4994035;28;20034;-79
2022/03/15 08:03:48;;;;;;;11.55;7.28;;;;;;;;;;5020288;28;20065;-79
2022/03/15 08:06:14;;;;;;;14.63;7.60;;;;;;;;;;4992451;28;20025;-79
2022/03/15 08:08:42;;;;;;;13.63;7.22;;;;;;;;;;4989903;28;20497;-78
2022/03/15 08:11:07;;;;;;;12.32;6.97;;;;;;;;;;5006852;28;20026;-77
2022/03/15 08:13:36;;;;;;;13.70;7.20;;;;;;;;;;4995030;28;20038;-77
2022/03/15 08:16:03;;;;;;;13.80;6.72;;;;;;;;;;4991671;28;20026;-77
2022/03/15 08:18:28;;;;;;;14.30;7.13;;;;;;;;;;4991339;28;20045;-77
2022/03/15 08:20:55;;;;;;;15.50;7.00;;;;;;;;;;5001585;28;20582;-77
2022/03/15 08:23:21;;;;;;;10.50;7.18;;;;;;;;;;4991641;28;20066;-79
2022/03/15 08:25:47;;;;;;;11.73;6.82;;;;;;;;;;4990997;28;20021;-80
2022/03/15 08:28:12;;;;;;;14.40;7.32;;;;;;;;;;5018894;28;20030;-82
2022/03/15 08:30:37;;;;;;;14.50;7.32;;;;;;;;;;4988520;28;20034;-79
2022/03/15 08:33:03;;;;;;;12.63;6.68;;;;;;;;;;4988389;28;20035;-78
2022/03/15 08:35:29;;;;;;;12.25;7.07;;;;;;;;;;4993093;28;20042;-78
2022/03/15 08:37:54;;;;;;;15.10;7.13;;;;;;;;;;4991354;28;20120;-79
2022/03/15 08:40:21;;;;;;;12.45;7.18;;;;;;;;;;4991845;28;20144;-78
2022/03/15 08:42:47;;;;;;;12.90;7.10;;;;;;;;;;4987135;28;20089;-78
2022/03/15 08:45:12;;;;;;;16.25;6.90;;;;;;;;;;4990300;28;20046;-84
2022/03/15 08:47:39;;;;;;;14.27;6.60;;;;;;;;;;4984676;28;20033;-79
2022/03/15 08:50:05;;;;;;;12.60;7.00;;;;;;;;;;4990262;28;20054;-78
2022/03/15 08:52:31;;;;;;;16.35;6.50;;;;;;;;;;4991150;28;20040;-78
2022/03/15 08:54:57;;;;;;;12.45;7.28;;;;;;;;;;4990849;28;20109;-79
2022/03/15 08:57:23;;;;;;;9.85;6.55;;;;;;;;;;4991733;28;20057;-79
2022/03/15 08:59:48;;;;;;;12.25;6.93;;;;;;;;;;4999316;28;20065;-78
2022/03/15 09:02:15;;;;;;;11.27;6.93;;;;;;;;;;4990311;28;20434;-79
2022/03/15 09:04:41;;;;;;;13.35;7.15;;;;;;;;;;4991942;28;20501;-79
2022/03/15 09:07:06;;;;;;;11.52;6.43;;;;;;;;;;4990039;28;20030;-78
2022/03/15 09:09:31;;;;;;;14.00;6.90;;;;;;;;;;5019205;28;20030;-78
2022/03/15 09:11:57;;;;;;;11.35;7.05;;;;;;;;;;4987844;28;20049;-79
2022/03/15 09:14:23;;;;;;;12.73;7.00;;;;;;;;;;5021814;28;20022;-80
2022/03/15 09:16:48;;;;;;;10.18;6.13;;;;;;;;;;4988702;28;20030;-84
2022/03/15 09:19:14;;;;;;;10.27;6.25;;;;;;;;;;4991210;28;20038;-79
2022/03/15 09:21:40;;;;;;;12.85;6.20;;;;;;;;;;4990691;28;20418;-85
2022/03/15 09:24:06;;;;;;;12.80;6.43;;;;;;;;;;4988917;28;20038;-77
2022/03/15 09:26:32;;;;;;;11.85;6.40;;;;;;;;;;4990000;28;20105;-77
2022/03/15 09:28:58;;;;;;;12.63;6.90;;;;;;;;;;4987437;28;20492;-77
2022/03/15 09:31:24;;;;;;;15.68;6.13;;;;;;;;;;4986345;28;20165;-78
2022/03/15 09:33:50;;;;;;;12.57;6.85;;;;;;;;;;5022558;28;20391;-78
2022/03/15 09:36:16;;;;;;;10.10;6.45;;;;;;;;;;4991401;28;20027;-79
2022/03/15 09:38:42;;;;;;;12.50;6.30;;;;;;;;;;4991522;28;20124;-78
2022/03/15 09:41:08;;;;;;;12.32;6.78;;;;;;;;;;4995371;28;20172;-79
2022/03/15 09:43:40;;;;;;;12.98;6.55;;;;;;;;;;4991573;28;20125;-79
2022/03/15 09:46:08;;;;;;;10.50;6.93;;;;;;;;;;4988345;28;20180;-79
2022/03/15 09:48:34;;;;;;;12.10;6.70;;;;;;;;;;4992344;28;20398;-79
2022/03/15 09:51:04;;;;;;;12.40;6.40;;;;;;;;;;4989559;28;20486;-79
2022/03/15 09:53:31;;;;;;;12.88;6.50;;;;;;;;;;4986180;28;20502;-83
2022/03/15 09:55:57;;;;;;;10.15;5.85;;;;;;;;;;4991626;28;20030;-83
2022/03/15 09:58:22;;;;;;;10.68;6.28;;;;;;;;;;4989154;28;20113;-84
2022/03/15 10:00:53;;;;;;;8.85;5.53;;;;;;;;;;4989373;28;20066;-78
2022/03/15 10:03:19;;;;;;;13.60;7.30;;;;;;;;;;4991625;28;20035;-78
2022/03/15 10:05:45;;;;;;;14.23;6.43;;;;;;;;;;5020544;28;20030;-77
2022/03/15 10:08:15;;;;;;;8.32;5.78;;;;;;;;;;4989933;28;20534;-78
2022/03/15 10:10:41;;;;;;;12.20;6.22;;;;;;;;;;4988274;28;20023;-77
2022/03/15 10:13:06;;;;;;;13.10;6.63;;;;;;;;;;4990437;28;20033;-79
2022/03/15 10:15:31;;;;;;;14.55;6.63;;;;;;;;;;4986696;28;20571;-79
2022/03/15 10:18:04;;;;;;;11.60;6.05;;;;;;;;;;4988181;28;20181;-79
2022/03/15 10:20:37;;;;;;;10.25;6.18;;;;;;;;;;5006216;28;20022;-78
2022/03/15 10:23:03;;;;;;;12.48;6.30;;;;;;;;;;4988128;28;20037;-84
2022/03/15 10:25:30;;;;;;;13.05;6.43;;;;;;;;;;4990500;28;20034;-77
2022/03/15 10:28:02;;;;;;;10.68;5.80;;;;;;;;;;4988132;28;20041;-79
2022/03/15 10:30:29;;;;;;;11.15;6.18;;;;;;;;;;4982250;28;20037;-78
2022/03/15 10:32:56;;;;;;;12.18;7.00;;;;;;;;;;4989186;28;20026;-84
2022/03/15 10:35:24;;;;;;;10.25;6.30;;;;;;;;;;4992807;28;20157;-78
2022/03/15 10:37:50;;;;;;;12.65;6.10;;;;;;;;;;4989902;28;20666;-79
2022/03/15 10:40:17;;;;;;;11.30;6.45;;;;;;;;;;4994203;28;20023;-84
2022/03/15 10:42:44;;;;;;;10.23;6.10;;;;;;;;;;5009389;28;20407;-78
2022/03/15 10:45:22;;;;;;;12.23;7.00;;;;;;;;;;4995408;28;20066;-77
2022/03/15 10:47:56;;;;;;;12.65;6.43;;;;;;;;;;5003242;28;20050;-79
2022/03/15 10:50:23;;;;;;;11.88;6.53;;;;;;;;;;5021604;28;20030;-78
2022/03/15 10:52:51;;;;;;;11.25;6.50;;;;;;;;;;4995135;28;20526;-78
2022/03/15 10:55:23;;;;;;;11.18;6.45;;;;;;;;;;4993851;28;20026;-83
2022/03/15 10:57:54;;;;;;;10.00;6.25;;;;;;;;;;4992527;28;20031;-79
2022/03/15 11:00:31;;;;;;;12.60;6.32;;;;;;;;;;4993332;28;20033;-79
2022/03/15 11:02:57;;;;;;;11.38;7.10;;;;;;;;;;5024374;28;20033;-79
2022/03/15 11:05:33;;;;;;;11.20;6.55;;;;;;;;;;4992628;28;20475;-78
2022/03/15 11:08:13;;;;;;;13.07;6.72;;;;;;;;;;4993314;28;20496;-78
2022/03/15 11:10:41;;;;;;;13.68;7.22;;;;;;;;;;4992198;28;20037;-78
2022/03/15 11:13:11;;;;;;;13.55;7.10;;;;;;;;;;4990076;28;20048;-84
2022/03/15 11:15:41;;;;;;;10.18;6.65;;;;;;;;;;4990772;28;20081;-84
2022/03/15 11:18:08;;;;;;;12.30;6.30;;;;;;;;;;4994784;28;20418;-79
2022/03/15 11:20:39;;;;;;;11.02;6.05;;;;;;;;;;4993504;28;20471;-78
2022/03/15 11:23:07;;;;;;;10.32;6.18;;;;;;;;;;4992247;28;20509;-79
2022/03/15 11:25:38;;;;;;;11.98;6.93;;;;;;;;;;5017470;28;20114;-77
2022/03/15 11:28:08;;;;;;;10.93;6.90;;;;;;;;;;4989021;28;20026;-79
2022/03/15 11:30:33;;;;;;;14.65;6.72;;;;;;;;;;4993516;28;20112;-84
2022/03/15 11:33:02;;;;;;;12.50;6.70;;;;;;;;;;5023985;28;20022;-77
2022/03/15 11:35:29;;;;;;;11.63;7.10;;;;;;;;;;4994703;28;20030;-77
2022/03/15 11:37:55;;;;;;;11.98;6.90;;;;;;;;;;4992808;28;20423;-79
2022/03/15 11:40:21;;;;;;;10.43;6.38;;;;;;;;;;4994355;28;20030;-79
2022/03/15 11:42:50;;;;;;;10.75;6.20;;;;;;;;;;4992430;28;20483;-83
2022/03/15 11:45:30;;;;;;;11.38;6.60;;;;;;;;;;4992261;28;20505;-78
2022/03/15 11:48:02;;;;;;;14.05;7.15;;;;;;;;;;4988552;28;20030;-80
2022/03/15 11:50:59;;;;;;;11.60;6.35;;;;;;;;;;4992686;28;20038;-81
2022/03/15 11:53:46;;;;;;;11.70;6.80;;;;;;;;;;4991051;28;20475;-78
2022/03/15 11:56:36;;;;;;;12.40;6.68;;;;;;;;;;5007705;28;20048;-79
2022/03/15 11:59:01;;;;;;;11.43;6.60;;;;;;;;;;5002006;28;20026;-79
2022/03/15 12:01:28;;;;;;;10.65;6.20;;;;;;;;;;4987836;28;20080;-78
2022/03/15 12:03:59;;;;;;;10.70;7.03;;;;;;;;;;4991148;28;20018;-78
2022/03/15 12:06:28;;;;;;;12.23;6.38;;;;;;;;;;4992304;28;20490;-83
2022/03/15 12:08:59;;;;;;;14.63;6.82;;;;;;;;;;4992380;28;20475;-79
2022/03/15 12:11:34;;;;;;;12.77;5.93;;;;;;;;;;4990360;28;20028;-84
2022/03/15 12:14:05;;;;;;;9.98;5.82;;;;;;;;;;4988934;28;20491;-79
2022/03/15 12:16:35;;;;;;;13.98;6.28;;;;;;;;;;5000446;28;20035;-83
2022/03/15 12:19:23;;;;;;;13.65;6.43;;;;;;;;;;5007422;28;20035;-77
2022/03/15 12:21:53;;;;;;;10.32;5.82;;;;;;;;;;4992072;28;20514;-77
2022/03/15 12:24:28;;;;;;;13.20;6.40;;;;;;;;;;4992998;28;20034;-80
2022/03/15 12:27:08;;;;;;;10.05;6.13;;;;;;;;;;4991986;28;20121;-79
2022/03/15 12:29:36;;;;;;;12.57;6.60;;;;;;;;;;4994793;28;20029;-79
2022/03/15 12:32:22;;;;;;;11.40;6.88;;;;;;;;;;5016795;28;20042;-79
2022/03/15 12:34:57;;;;;;;8.88;6.35;;;;;;;;;;4989117;28;20080;-80
2022/03/15 12:37:34;;;;;;;13.50;6.45;;;;;;;;;;5025876;28;20026;-78
2022/03/15 12:40:03;;;;;;;13.60;6.75;;;;;;;;;;4991707;28;20048;-79
2022/03/15 12:42:29;;;;;;;16.27;7.25;;;;;;;;;;5021214;28;20521;-78
2022/03/15 12:45:01;;;;;;;14.20;7.18;;;;;;;;;;4993619;28;20061;-78
2022/03/15 12:47:29;;;;;;;10.75;7.38;;;;;;;;;;5005055;28;20487;-79
2022/03/15 12:50:10;;;;;;;11.77;7.28;;;;;;;;;;4991430;28;20081;-79
2022/03/15 12:52:45;;;;;;;11.63;7.55;;;;;;;;;;5022016;28;20026;-78
2022/03/15 12:55:35;;;;;;;9.63;6.90;;;;;;;;;;4994906;28;20466;-83
2022/03/15 12:58:03;;;;;;;10.68;7.60;;;;;;;;;;5007119;28;20038;-79
2022/03/15 13:00:32;;;;;;;13.45;7.15;;;;;;;;;;4986288;28;20510;-79
2022/03/15 13:02:58;;;;;;;12.63;6.38;;;;;;;;;;5020547;28;20038;-84
2022/03/15 13:05:25;;;;;;;13.43;7.65;;;;;;;;;;4989770;28;20030;-78
2022/03/15 13:07:53;;;;;;;9.60;7.07;;;;;;;;;;4993026;28;20030;-78
2022/03/15 13:10:32;;;;;;;12.57;6.72;;;;;;;;;;4991622;28;20038;-78
2022/03/15 13:12:58;;;;;;;11.68;6.78;;;;;;;;;;4988968;28;20026;-84
2022/03/15 13:15:24;;;;;;;14.63;6.43;;;;;;;;;;4991717;28;20101;-79
2022/03/15 13:17:52;;;;;;;12.57;6.88;;;;;;;;;;4988900;28;20482;-83
2022/03/15 13:20:25;;;;;;;10.40;6.28;;;;;;;;;;4991655;28;20470;-78
2022/03/15 13:22:56;;;;;;;10.73;7.00;;;;;;;;;;4990706;28;20385;-83
2022/03/15 13:25:22;;;;;;;10.77;6.55;;;;;;;;;;4990504;28;20030;-79
2022/03/15 13:27:51;;;;;;;11.10;6.75;;;;;;;;;;4990711;28;20561;-83
2022/03/15 13:30:17;;;;;;;11.23;5.90;;;;;;;;;;4989510;28;20030;-80
2022/03/15 13:32:52;;;;;;;12.30;7.00;;;;;;;;;;4989056;28;20033;-77
2022/03/15 13:35:23;;;;;;;10.85;6.43;;;;;;;;;;4990628;28;20029;-83
2022/03/15 13:37:48;;;;;;;13.65;7.05;;;;;;;;;;4993126;28;20027;-79
2022/03/15 13:40:15;;;;;;;11.13;7.50;;;;;;;;;;4989929;28;20096;-79
2022/03/15 13:42:43;;;;;;;12.68;6.72;;;;;;;;;;4989549;28;20042;-78
2022/03/15 13:45:11;;;;;;;13.88;7.20;;;;;;;;;;5003375;28;20451;-78
2022/03/15 13:47:37;;;;;;;12.77;8.10;;;;;;;;;;5001925;28;20045;-78
2022/03/15 13:50:07;;;;;;;14.15;7.15;;;;;;;;;;4991198;28;20025;-78
2022/03/15 13:52:34;;;;;;;10.05;7.57;;;;;;;;;;4988055;28;20534;-78
2022/03/15 13:55:02;;;;;;;12.32;7.40;;;;;;;;;;4990593;28;20360;-78
2022/03/15 13:57:35;;;;;;;11.10;6.97;;;;;;;;;;4989396;28;20018;-84
2022/03/15 14:00:13;;;;;;;9.38;6.72;;;;;;;;;;4993115;28;20029;-80
2022/03/15 14:02:40;;;;;;;13.65;7.20;;;;;;;;;;5021475;28;20026;-82
2022/03/15 14:05:08;;;;;;;9.65;7.05;;;;;;;;;;4993607;28;20125;-79
2022/03/15 14:07:37;;;;;;;10.82;7.28;;;;;;;;;;4991515;28;20088;-83
2022/03/15 14:10:20;;;;;;;12.25;8.40;;;;;;;;;;4987894;28;20476;-79
2022/03/15 14:12:52;;;;;;;11.57;7.95;;;;;;;;;;4993049;28;20022;-77
2022/03/15 14:15:19;;;;;;;13.25;8.35;;;;;;;;;;4990837;28;20015;-83
2022/03/15 14:17:55;;;;;;;10.43;7.75;;;;;;;;;;5021413;28;20559;-78
2022/03/15 14:20:22;;;;;;;9.63;7.30;;;;;;;;;;4988619;28;20045;-80
2022/03/15 14:22:52;;;;;;;12.52;7.82;;;;;;;;;;4991161;28;20033;-79
2022/03/15 14:25:22;;;;;;;12.02;8.32;;;;;;;;;;4993594;28;20113;-78
2022/03/15 14:27:55;;;;;;;12.77;8.07;;;;;;;;;;4991656;28;20116;-84
2022/03/15 14:30:22;;;;;;;11.65;8.32;;;;;;;;;;5005139;28;20022;-79